Time;durP1;ratioP1;P1;durP2;ratioP2;P2;SDS_P1;SDS_P2;PMS_P1;PMS_P2;Temp;Humidity;BMP_temperature;BMP_pressure;BME280_temperature;BME280_humidity;BME280_pressure;Samples;Min_cycle;Max_cycle;Signal;HPM_P1;HPM_P2
2021/04/28 00:02:17;;;;;;;;;;;;;;;;;;5086715;28;20023;-65
2021/04/28 00:04:43;;;;;;;;;;;;;;;;;;5083372;28;20299;-67
2021/04/28 00:07:10;;;;;;;;;;;;;;;;;;5084755;28;19924;-67
2021/04/28 00:09:36;;;;;;;;;;;;;;;;;;5087862;28;19978;-66
2021/04/28 00:12:03;;;;;;;;;;;;;;;;;;5085525;28;19932;-65
2021/04/28 00:14:29;;;;;;;;;;;;;;;;;;5081230;28;19930;-64
2021/04/28 00:16:56;;;;;;;;;;;;;;;;;;5086866;28;19959;-65
2021/04/28 00:19:22;;;;;;;;;;;;;;;;;;5089772;28;19924;-66
2021/04/28 00:21:49;;;;;;;;;;;;;;;;;;5089430;28;19928;-64
2021/04/28 00:24:15;;;;;;;;;;;;;;;;;;5079780;28;19989;-67
2021/04/28 00:26:42;;;;;;;;;;;;;;;;;;5084039;28;19932;-67
2021/04/28 00:29:08;;;;;;;;;;;;;;;;;;5088273;28;20023;-66
2021/04/28 00:31:35;;;;;;;;;;;;;;;;;;5091417;28;19930;-67
2021/04/28 00:34:01;;;;;;;;;;;;;;;;;;5085155;28;19925;-66
2021/04/28 00:36:28;;;;;;;;;;;;;;;;;;5088426;28;20387;-66
2021/04/28 00:38:54;;;;;;;;;;;;;;;;;;5075383;28;19925;-66
2021/04/28 00:41:21;;;;;;;;;;;;;;;;;;5085422;28;20357;-66
2021/04/28 00:43:47;;;;;;;;;;;;;;;;;;5081316;28;20031;-67
2021/04/28 00:46:14;;;;;;;;;;;;;;;;;;5083388;28;19932;-66
2021/04/28 00:48:40;;;;;;;;;;;;;;;;;;5085201;28;19962;-67
2021/04/28 00:51:07;;;;;;;;;;;;;;;;;;5080669;28;19932;-66
2021/04/28 00:53:33;;;;;;;;;;;;;;;;;;5087566;28;19924;-65
2021/04/28 00:56:00;;;;;;;;;;;;;;;;;;5088929;28;20388;-66
2021/04/28 00:58:26;;;;;;;;;;;;;;;;;;5088637;28;19939;-68
2021/04/28 01:00:53;;;;;;;;;;;;;;;;;;5077286;28;19925;-66
2021/04/28 01:03:19;;;;;;;;;;;;;;;;;;5089093;28;19932;-67
2021/04/28 01:05:46;;;;;;;;;;;;;;;;;;5089514;28;19932;-69
2021/04/28 01:08:12;;;;;;;;;;;;;;;;;;5087016;28;19971;-65
2021/04/28 01:10:39;;;;;;;;;;;;;;;;;;5082425;28;19972;-66
2021/04/28 01:13:05;;;;;;;;;;;;;;;;;;5086690;28;20014;-67
2021/04/28 01:15:32;;;;;;;;;;;;;;;;;;5082725;28;19935;-66
2021/04/28 01:17:58;;;;;;;;;;;;;;;;;;5080563;28;19971;-66
2021/04/28 01:20:25;;;;;;;;;;;;;;;;;;5087058;28;20414;-66
2021/04/28 01:22:51;;;;;;;;;;;;;;;;;;5085693;28;19924;-65
2021/04/28 01:25:18;;;;;;;;;;;;;;;;;;5085844;28;19924;-65
2021/04/28 01:27:44;;;;;;;;;;;;;;;;;;5083841;28;20019;-66
2021/04/28 01:30:11;;;;;;;;;;;;;;;;;;5087162;28;19977;-66
2021/04/28 01:32:37;;;;;;;;;;;;;;;;;;5075720;28;19924;-65
2021/04/28 01:35:10;;;;;;;;;;;;;;;;;;5086636;28;19930;-66
2021/04/28 01:37:36;;;;;;;;;;;;;;;;;;5081552;28;19935;-66
2021/04/28 01:40:02;;;;;;;;;;;;;;;;;;5082358;28;20023;-66
2021/04/28 01:42:29;;;;;;;;;;;;;;;;;;5085902;28;19924;-64
2021/04/28 01:44:55;;;;;;;;;;;;;;;;;;5080366;28;19934;-65
2021/04/28 01:47:22;;;;;;;;;;;;;;;;;;5082542;28;20467;-67
2021/04/28 01:49:48;;;;;;;;;;;;;;;;;;5089307;28;19939;-66
2021/04/28 01:52:15;;;;;;;;;;;;;;;;;;5089965;28;20512;-66
2021/04/28 01:54:41;;;;;;;;;;;;;;;;;;5085215;28;20017;-66
2021/04/28 01:57:08;;;;;;;;;;;;;;;;;;5076684;28;19925;-66
2021/04/28 01:59:34;;;;;;;;;;;;;;;;;;5081862;28;20063;-66
2021/04/28 02:02:01;;;;;;;;;;;;;;;;;;5079513;28;19924;-66
2021/04/28 02:04:27;;;;;;;;;;;;;;;;;;5083360;28;19924;-66
2021/04/28 02:06:54;;;;;;;;;;;;;;;;;;5085700;28;19959;-66
2021/04/28 02:09:20;;;;;;;;;;;;;;;;;;5081548;28;19983;-65
2021/04/28 02:11:47;;;;;;;;;;;;;;;;;;5086166;28;20011;-65
2021/04/28 02:14:13;;;;;;;;;;;;;;;;;;5086442;28;19924;-64
2021/04/28 02:16:39;;;;;;;;;;;;;;;;;;5087699;28;19932;-67
2021/04/28 02:19:06;;;;;;;;;;;;;;;;;;5082029;28;19947;-68
2021/04/28 02:21:32;;;;;;;;;;;;;;;;;;5088198;28;19924;-66
2021/04/28 02:23:59;;;;;;;;;;;;;;;;;;5079240;28;19935;-65
2021/04/28 02:26:25;;;;;;;;;;;;;;;;;;5086928;28;19928;-66
2021/04/28 02:28:52;;;;;;;;;;;;;;;;;;5077583;28;20010;-66
2021/04/28 02:31:18;;;;;;;;;;;;;;;;;;5083102;28;19931;-66
2021/04/28 02:33:45;;;;;;;;;;;;;;;;;;5082535;28;19934;-66
2021/04/28 02:36:11;;;;;;;;;;;;;;;;;;5085764;28;19932;-65
2021/04/28 02:38:38;;;;;;;;;;;;;;;;;;5091435;28;20284;-66
2021/04/28 02:41:04;;;;;;;;;;;;;;;;;;5087182;28;19932;-65
2021/04/28 02:43:31;;;;;;;;;;;;;;;;;;5087431;28;19947;-65
2021/04/28 02:45:57;;;;;;;;;;;;;;;;;;5088953;28;19924;-68
2021/04/28 02:48:24;;;;;;;;;;;;;;;;;;5090325;28;19932;-65
2021/04/28 02:50:50;;;;;;;;;;;;;;;;;;5084968;28;21258;-65
2021/04/28 02:53:17;;;;;;;;;;;;;;;;;;5083415;28;19943;-65
2021/04/28 02:55:43;;;;;;;;;;;;;;;;;;5093400;28;19999;-65
2021/04/28 02:58:10;;;;;;;;;;;;;;;;;;5082230;28;20031;-65
2021/04/28 03:00:36;;;;;;;;;;;;;;;;;;5091368;28;19977;-64
2021/04/28 03:03:02;;;;;;;;;;;;;;;;;;5089347;28;19924;-68
2021/04/28 03:05:29;;;;;;;;;;;;;;;;;;5089782;28;19928;-65
2021/04/28 03:07:56;;;;;;;;;;;;;;;;;;5083643;28;19928;-65
2021/04/28 03:10:23;;;;;;;;;;;;;;;;;;5093053;28;20418;-66
2021/04/28 03:12:49;;;;;;;;;;;;;;;;;;5088100;28;20418;-66
2021/04/28 03:15:16;;;;;;;;;;;;;;;;;;5083649;28;19971;-66
2021/04/28 03:17:42;;;;;;;;;;;;;;;;;;5081919;28;19924;-66
2021/04/28 03:20:09;;;;;;;;;;;;;;;;;;5081874;28;20002;-65
2021/04/28 03:22:35;;;;;;;;;;;;;;;;;;5090195;28;19974;-66
2021/04/28 03:25:02;;;;;;;;;;;;;;;;;;5085710;28;20337;-66
2021/04/28 03:27:28;;;;;;;;;;;;;;;;;;5089562;28;19932;-66
2021/04/28 03:29:55;;;;;;;;;;;;;;;;;;5087478;28;20338;-67
2021/04/28 03:32:21;;;;;;;;;;;;;;;;;;5082546;28;20019;-66
2021/04/28 03:34:48;;;;;;;;;;;;;;;;;;5090837;28;20291;-66
2021/04/28 03:37:14;;;;;;;;;;;;;;;;;;5088392;28;20009;-66
2021/04/28 03:39:41;;;;;;;;;;;;;;;;;;5087231;28;19924;-65
2021/04/28 03:42:08;;;;;;;;;;;;;;;;;;5089556;28;19931;-66
2021/04/28 03:44:34;;;;;;;;;;;;;;;;;;5087131;28;19934;-66
2021/04/28 03:47:01;;;;;;;;;;;;;;;;;;5092157;28;19930;-66
2021/04/28 03:49:27;;;;;;;;;;;;;;;;;;5090740;28;20007;-65
2021/04/28 03:51:54;;;;;;;;;;;;;;;;;;5087415;28;19925;-63
2021/04/28 03:54:20;;;;;;;;;;;;;;;;;;5081226;28;19977;-65
2021/04/28 03:56:47;;;;;;;;;;;;;;;;;;5084175;28;19924;-65
2021/04/28 03:59:13;;;;;;;;;;;;;;;;;;5086999;28;20012;-66
2021/04/28 04:01:40;;;;;;;;;;;;;;;;;;5087928;28;20333;-66
2021/04/28 04:04:06;;;;;;;;;;;;;;;;;;5081246;28;19924;-66
2021/04/28 04:06:32;;;;;;;;;;;;;;;;;;5079229;28;20385;-65
2021/04/28 04:08:59;;;;;;;;;;;;;;;;;;5086448;28;19931;-65
2021/04/28 04:11:25;;;;;;;;;;;;;;;;;;5079158;28;19935;-66
2021/04/28 04:13:52;;;;;;;;;;;;;;;;;;5087360;28;19924;-65
2021/04/28 04:16:18;;;;;;;;;;;;;;;;;;5080136;28;19957;-66
2021/04/28 04:18:45;;;;;;;;;;;;;;;;;;5085673;28;19928;-65
2021/04/28 04:21:11;;;;;;;;;;;;;;;;;;5086846;28;19932;-65
2021/04/28 04:23:38;;;;;;;;;;;;;;;;;;5082690;28;19931;-65
2021/04/28 04:26:04;;;;;;;;;;;;;;;;;;5084280;28;20066;-64
2021/04/28 04:28:31;;;;;;;;;;;;;;;;;;5086880;28;20305;-66
2021/04/28 04:30:57;;;;;;;;;;;;;;;;;;5086091;28;19924;-65
2021/04/28 04:33:24;;;;;;;;;;;;;;;;;;5083502;28;20023;-65
2021/04/28 04:35:50;;;;;;;;;;;;;;;;;;5085586;28;19931;-64
2021/04/28 04:38:17;;;;;;;;;;;;;;;;;;5080376;28;19924;-65
2021/04/28 04:40:43;;;;;;;;;;;;;;;;;;5083835;28;19924;-65
2021/04/28 04:43:10;;;;;;;;;;;;;;;;;;5082395;28;19925;-65
2021/04/28 04:45:36;;;;;;;;;;;;;;;;;;5087079;28;19924;-64
2021/04/28 04:48:03;;;;;;;;;;;;;;;;;;5087573;28;19924;-64
2021/04/28 04:50:29;;;;;;;;;;;;;;;;;;5088869;28;20352;-65
2021/04/28 04:52:58;;;;;;;;;;;;;;;;;;5085483;28;19928;-65
2021/04/28 04:55:24;;;;;;;;;;;;;;;;;;5078431;28;19932;-65
2021/04/28 04:57:51;;;;;;;;;;;;;;;;;;5078356;28;20448;-64
2021/04/28 05:00:17;;;;;;;;;;;;;;;;;;5077760;28;20011;-65
2021/04/28 05:02:44;;;;;;;;;;;;;;;;;;5078318;28;20305;-67
2021/04/28 05:05:10;;;;;;;;;;;;;;;;;;5089356;28;19924;-66
2021/04/28 05:07:37;;;;;;;;;;;;;;;;;;5090271;28;20318;-66
2021/04/28 05:10:03;;;;;;;;;;;;;;;;;;5082872;28;19963;-63
2021/04/28 05:12:30;;;;;;;;;;;;;;;;;;5083923;28;20311;-62
2021/04/28 05:14:56;;;;;;;;;;;;;;;;;;5080356;28;20011;-64
2021/04/28 05:17:23;;;;;;;;;;;;;;;;;;5079518;28;19963;-65
2021/04/28 05:19:49;;;;;;;;;;;;;;;;;;5085220;28;19924;-64
2021/04/28 05:22:16;;;;;;;;;;;;;;;;;;5076972;28;19924;-64
2021/04/28 05:24:42;;;;;;;;;;;;;;;;;;5087876;28;19934;-65
2021/04/28 05:27:09;;;;;;;;;;;;;;;;;;5082638;28;20127;-65
2021/04/28 05:29:35;;;;;;;;;;;;;;;;;;5087120;28;19972;-65
2021/04/28 05:32:04;;;;;;;;;;;;;;;;;;5086979;28;19951;-65
2021/04/28 05:34:30;;;;;;;;;;;;;;;;;;5084429;28;19999;-64
2021/04/28 05:36:57;;;;;;;;;;;;;;;;;;5077244;28;20011;-66
2021/04/28 05:39:23;;;;;;;;;;;;;;;;;;5081407;28;19928;-65
2021/04/28 05:41:50;;;;;;;;;;;;;;;;;;5094154;28;19932;-65
2021/04/28 05:44:16;;;;;;;;;;;;;;;;;;5088585;28;20025;-65
2021/04/28 05:46:43;;;;;;;;;;;;;;;;;;5082437;28;19976;-64
2021/04/28 05:49:09;;;;;;;;;;;;;;;;;;5084403;28;19924;-66
2021/04/28 05:51:36;;;;;;;;;;;;;;;;;;5085993;28;19931;-65
2021/04/28 05:54:02;;;;;;;;;;;;;;;;;;5074445;28;20283;-65
2021/04/28 05:56:29;;;;;;;;;;;;;;;;;;5077043;28;19924;-66
2021/04/28 05:58:55;;;;;;;;;;;;;;;;;;5083017;28;20400;-65
2021/04/28 06:01:22;;;;;;;;;;;;;;;;;;5083164;28;19924;-66
2021/04/28 06:03:48;;;;;;;;;;;;;;;;;;5084102;28;19924;-65
2021/04/28 06:06:15;;;;;;;;;;;;;;;;;;5078571;28;19951;-65
2021/04/28 06:08:41;;;;;;;;;;;;;;;;;;5080445;28;20987;-66
2021/04/28 06:11:08;;;;;;;;;;;;;;;;;;5084431;28;19976;-66
2021/04/28 06:13:34;;;;;;;;;;;;;;;;;;5068572;28;19969;-66
2021/04/28 06:16:01;;;;;;;;;;;;;;;;;;5076197;28;19959;-66
2021/04/28 06:18:27;;;;;;;;;;;;;;;;;;5074831;28;19930;-67
2021/04/28 06:20:54;;;;;;;;;;;;;;;;;;5077480;28;20019;-66
2021/04/28 06:23:20;;;;;;;;;;;;;;;;;;5082076;28;19924;-66
2021/04/28 06:25:49;;;;;;;;;;;;;;;;;;5083471;28;19935;-66
2021/04/28 06:28:15;;;;;;;;;;;;;;;;;;5079143;28;19929;-67
2021/04/28 06:30:41;;;;;;;;;;;;;;;;;;5083107;28;20464;-67
2021/04/28 06:33:08;;;;;;;;;;;;;;;;;;5084351;28;19928;-66
2021/04/28 06:35:34;;;;;;;;;;;;;;;;;;5087832;28;20060;-66
2021/04/28 06:38:01;;;;;;;;;;;;;;;;;;5083235;28;19935;-66
2021/04/28 06:40:28;;;;;;;;;;;;;;;;;;5087131;28;20307;-66
2021/04/28 06:42:54;;;;;;;;;;;;;;;;;;5084403;28;19924;-67
2021/04/28 06:45:21;;;;;;;;;;;;;;;;;;5086307;28;20075;-67
2021/04/28 06:47:48;;;;;;;;;;;;;;;;;;5082997;28;19924;-66
2021/04/28 06:50:14;;;;;;;;;;;;;;;;;;5084799;28;19964;-66
2021/04/28 06:52:44;;;;;;;;;;;;;;;;;;5085690;28;20368;-66
2021/04/28 06:55:10;;;;;;;;;;;;;;;;;;5086143;28;19931;-66
2021/04/28 06:57:37;;;;;;;;;;;;;;;;;;5081584;28;20023;-67
2021/04/28 07:00:03;;;;;;;;;;;;;;;;;;5084849;28;19971;-66
2021/04/28 07:02:30;;;;;;;;;;;;;;;;;;5086916;28;19924;-66
2021/04/28 07:04:56;;;;;;;;;;;;;;;;;;5082406;28;19932;-67
2021/04/28 07:07:23;;;;;;;;;;;;;;;;;;5082739;28;20338;-66
2021/04/28 07:09:49;;;;;;;;;;;;;;;;;;5085326;28;20026;-66
2021/04/28 07:12:20;;;;;;;;;;;;;;;;;;5087851;28;20346;-66
2021/04/28 07:14:46;;;;;;;;;;;;;;;;;;5087832;28;19947;-66
2021/04/28 07:17:13;;;;;;;;;;;;;;;;;;5088211;28;20027;-67
2021/04/28 07:19:39;;;;;;;;;;;;;;;;;;5089824;28;19924;-66
2021/04/28 07:22:06;;;;;;;;;;;;;;;;;;5088071;28;19930;-65
2021/04/28 07:24:32;;;;;;;;;;;;;;;;;;5088111;28;19924;-65
2021/04/28 07:26:59;;;;;;;;;;;;;;;;;;5087560;28;19939;-66
2021/04/28 07:29:25;;;;;;;;;;;;;;;;;;5084026;28;19936;-67
2021/04/28 07:31:52;;;;;;;;;;;;;;;;;;5086496;28;20012;-68
2021/04/28 07:34:18;;;;;;;;;;;;;;;;;;5088462;28;19932;-67
2021/04/28 07:36:45;;;;;;;;;;;;;;;;;;5086801;28;19967;-67
2021/04/28 07:39:12;;;;;;;;;;;;;;;;;;5084935;28;20014;-67
2021/04/28 07:41:38;;;;;;;;;;;;;;;;;;5086250;28;20448;-67
2021/04/28 07:44:05;;;;;;;;;;;;;;;;;;5088152;28;20307;-67
2021/04/28 07:46:32;;;;;;;;;;;;;;;;;;5089447;28;19931;-67
2021/04/28 07:49:03;;;;;;;;;;;;;;;;;;5081365;28;20027;-67
2021/04/28 07:51:30;;;;;;;;;;;;;;;;;;5088551;28;19924;-66
2021/04/28 07:53:56;;;;;;;;;;;;;;;;;;5090934;28;19930;-66
2021/04/28 07:56:23;;;;;;;;;;;;;;;;;;5089654;28;20425;-67
2021/04/28 07:58:49;;;;;;;;;;;;;;;;;;5083535;28;20014;-66
2021/04/28 08:01:16;;;;;;;;;;;;;;;;;;5087938;28;20038;-66
2021/04/28 08:03:42;;;;;;;;;;;;;;;;;;5092062;28;19930;-66
2021/04/28 08:06:09;;;;;;;;;;;;;;;;;;5086528;28;20568;-66
2021/04/28 08:08:35;;;;;;;;;;;;;;;;;;5079909;28;20303;-66
2021/04/28 08:11:02;;;;;;;;;;;;;;;;;;5086520;28;20031;-69
2021/04/28 08:13:28;;;;;;;;;;;;;;;;;;5090959;28;19931;-65
2021/04/28 08:15:55;;;;;;;;;;;;;;;;;;5090318;28;20005;-65
2021/04/28 08:18:21;;;;;;;;;;;;;;;;;;5085568;28;19924;-67
2021/04/28 08:20:48;;;;;;;;;;;;;;;;;;5085841;28;20051;-68
2021/04/28 08:23:14;;;;;;;;;;;;;;;;;;5088441;28;19940;-65
2021/04/28 08:25:42;;;;;;;;;;;;;;;;;;5089801;28;19932;-65
2021/04/28 08:28:08;;;;;;;;;;;;;;;;;;5081220;28;19932;-67
2021/04/28 08:30:35;;;;;;;;;;;;;;;;;;5091829;28;19924;-66
2021/04/28 08:33:01;;;;;;;;;;;;;;;;;;5085642;28;19924;-66
2021/04/28 08:35:28;;;;;;;;;;;;;;;;;;5090590;28;19959;-67
2021/04/28 08:37:54;;;;;;;;;;;;;;;;;;5086955;28;19975;-67
2021/04/28 08:40:21;;;;;;;;;;;;;;;;;;5087746;28;19924;-67
2021/04/28 08:42:47;;;;;;;;;;;;;;;;;;5088573;28;20439;-66
2021/04/28 08:45:14;;;;;;;;;;;;;;;;;;5088423;28;20288;-67
2021/04/28 08:47:42;;;;;;;;;;;;;;;;;;5082191;28;19931;-66
2021/04/28 08:50:08;;;;;;;;;;;;;;;;;;5090964;28;19930;-66
2021/04/28 08:52:35;;;;;;;;;;;;;;;;;;5095352;28;19927;-66
2021/04/28 08:55:01;;;;;;;;;;;;;;;;;;5090060;28;19925;-65
2021/04/28 08:57:28;;;;;;;;;;;;;;;;;;5084197;28;19963;-65
2021/04/28 08:59:54;;;;;;;;;;;;;;;;;;5087803;28;19932;-65
2021/04/28 09:02:22;;;;;;;;;;;;;;;;;;5087903;28;19931;-66
2021/04/28 09:04:49;;;;;;;;;;;;;;;;;;5086474;28;19928;-65
2021/04/28 09:07:15;;;;;;;;;;;;;;;;;;5085778;28;19934;-66
2021/04/28 09:09:42;;;;;;;;;;;;;;;;;;5086538;28;19931;-65
2021/04/28 09:12:08;;;;;;;;;;;;;;;;;;5089070;28;20027;-66
2021/04/28 09:14:34;;;;;;;;;;;;;;;;;;5084367;28;20307;-66
2021/04/28 09:17:01;;;;;;;;;;;;;;;;;;5084400;28;20003;-66
2021/04/28 09:19:30;;;;;;;;;;;;;;;;;;5085846;28;19924;-67
2021/04/28 09:21:59;;;;;;;;;;;;;;;;;;5086077;28;19935;-67
2021/04/28 09:24:25;;;;;;;;;;;;;;;;;;5088410;28;19928;-68
2021/04/28 09:26:54;;;;;;;;;;;;;;;;;;5086336;28;19928;-67
2021/04/28 09:29:20;;;;;;;;;;;;;;;;;;5086277;28;19977;-68
2021/04/28 09:31:47;;;;;;;;;;;;;;;;;;5084642;28;19972;-68
2021/04/28 09:34:13;;;;;;;;;;;;;;;;;;5082685;28;20339;-68
2021/04/28 09:36:41;;;;;;;;;;;;;;;;;;5088617;28;19999;-65
2021/04/28 09:39:07;;;;;;;;;;;;;;;;;;5094251;28;19935;-65
2021/04/28 09:41:34;;;;;;;;;;;;;;;;;;5091991;28;19954;-66
2021/04/28 09:44:00;;;;;;;;;;;;;;;;;;5083908;28;19924;-66
2021/04/28 09:46:27;;;;;;;;;;;;;;;;;;5085668;28;20427;-66
2021/04/28 09:48:53;;;;;;;;;;;;;;;;;;5080510;28;20435;-67
2021/04/28 09:51:20;;;;;;;;;;;;;;;;;;5083518;28;19924;-67
2021/04/28 09:53:46;;;;;;;;;;;;;;;;;;5085130;28;19935;-66
2021/04/28 09:56:13;;;;;;;;;;;;;;;;;;5088481;28;19924;-65
2021/04/28 09:58:41;;;;;;;;;;;;;;;;;;5081754;28;20355;-66
2021/04/28 10:01:07;;;;;;;;;;;;;;;;;;5083423;28;19970;-65
2021/04/28 10:03:34;;;;;;;;;;;;;;;;;;5087505;28;20020;-65
2021/04/28 10:06:00;;;;;;;;;;;;;;;;;;5088063;28;19924;-66
2021/04/28 10:08:27;;;;;;;;;;;;;;;;;;5083986;28;20036;-65
2021/04/28 10:10:53;;;;;;;;;;;;;;;;;;5087274;28;20057;-65
2021/04/28 10:13:20;;;;;;;;;;;;;;;;;;5085769;28;20333;-65
2021/04/28 10:15:46;;;;;;;;;;;;;;;;;;5088715;28;20410;-65
2021/04/28 10:18:13;;;;;;;;;;;;;;;;;;5081886;28;20007;-65
2021/04/28 10:20:39;;;;;;;;;;;;;;;;;;5115890;22;20019;-68
2021/04/28 10:23:06;;;;;;;;;;;;;;;;;;5087039;28;20014;-68
2021/04/28 10:25:32;;;;;;;;;;;;;;;;;;5080727;28;19930;-68
2021/04/28 10:27:59;;;;;;;;;;;;;;;;;;5082055;28;19925;-68
2021/04/28 10:30:25;;;;;;;;;;;;;;;;;;5078870;28;19966;-68
2021/04/28 10:32:52;;;;;;;;;;;;;;;;;;5076528;28;19928;-67
2021/04/28 10:35:18;;;;;;;;;;;;;;;;;;5063385;28;19936;-68
2021/04/28 10:37:45;;;;;;;;;;;;;;;;;;5065261;28;19935;-66
2021/04/28 10:40:12;;;;;;;;;;;;;;;;;;5075478;28;20291;-66
2021/04/28 10:42:38;;;;;;;;;;;;;;;;;;5076295;28;19931;-69
2021/04/28 10:45:05;;;;;;;;;;;;;;;;;;5066379;28;19937;-67
2021/04/28 10:47:33;;;;;;;;;;;;;;;;;;5063820;28;20323;-69
2021/04/28 10:49:59;;;;;;;;;;;;;;;;;;5065915;28;19939;-66
2021/04/28 10:52:26;;;;;;;;;;;;;;;;;;5070188;28;20376;-67
2021/04/28 10:54:52;;;;;;;;;;;;;;;;;;5065845;28;19993;-65
2021/04/28 10:57:19;;;;;;;;;;;;;;;;;;5068094;28;19939;-68
2021/04/28 10:59:45;;;;;;;;;;;;;;;;;;5073347;28;19933;-68
2021/04/28 11:02:12;;;;;;;;;;;;;;;;;;5071908;28;19932;-69
2021/04/28 11:04:38;;;;;;;;;;;;;;;;;;5067435;28;19924;-69
2021/04/28 11:07:07;;;;;;;;;;;;;;;;;;5070013;28;19963;-67
2021/04/28 11:09:33;;;;;;;;;;;;;;;;;;5069701;28;19928;-68
2021/04/28 11:12:00;;;;;;;;;;;;;;;;;;5069311;28;19924;-68
2021/04/28 11:14:29;;;;;;;;;;;;;;;;;;5070365;28;20023;-68
2021/04/28 11:16:56;;;;;;;;;;;;;;;;;;5065949;28;19929;-68
2021/04/28 11:19:22;;;;;;;;;;;;;;;;;;5071977;28;19928;-67
2021/04/28 11:21:49;;;;;;;;;;;;;;;;;;5070725;28;20014;-67
2021/04/28 11:24:15;;;;;;;;;;;;;;;;;;5066847;28;19928;-69
2021/04/28 11:26:42;;;;;;;;;;;;;;;;;;5064233;28;19932;-69
2021/04/28 11:29:08;;;;;;;;;;;;;;;;;;5065491;28;20018;-67
2021/04/28 11:31:35;;;;;;;;;;;;;;;;;;5066659;28;19925;-67
2021/04/28 11:34:01;;;;;;;;;;;;;;;;;;5069243;28;20307;-69
2021/04/28 11:36:28;;;;;;;;;;;;;;;;;;5064693;28;19925;-69
2021/04/28 11:38:54;;;;;;;;;;;;;;;;;;5060722;28;20004;-68
2021/04/28 11:41:23;;;;;;;;;;;;;;;;;;5067871;28;19925;-68
2021/04/28 11:43:50;;;;;;;;;;;;;;;;;;5071673;28;19929;-69
2021/04/28 11:46:16;;;;;;;;;;;;;;;;;;5067892;28;19932;-69
2021/04/28 11:48:43;;;;;;;;;;;;;;;;;;5062326;28;19928;-69
2021/04/28 11:51:10;;;;;;;;;;;;;;;;;;5070626;28;20388;-68
2021/04/28 11:53:38;;;;;;;;;;;;;;;;;;5067005;28;20346;-68
2021/04/28 11:56:05;;;;;;;;;;;;;;;;;;5069676;28;19925;-68
2021/04/28 11:58:32;;;;;;;;;;;;;;;;;;5065021;28;20018;-68
2021/04/28 12:00:59;;;;;;;;;;;;;;;;;;5070093;28;20385;-69
2021/04/28 12:03:25;;;;;;;;;;;;;;;;;;5067176;28;19971;-67
2021/04/28 12:05:53;;;;;;;;;;;;;;;;;;5071252;28;19960;-69
2021/04/28 12:08:20;;;;;;;;;;;;;;;;;;5061347;28;19987;-69
2021/04/28 12:10:47;;;;;;;;;;;;;;;;;;5067161;28;20446;-69
2021/04/28 12:13:13;;;;;;;;;;;;;;;;;;5070168;28;19933;-68
2021/04/28 12:15:41;;;;;;;;;;;;;;;;;;5071221;28;20030;-67
2021/04/28 12:18:08;;;;;;;;;;;;;;;;;;5061031;28;20023;-68
2021/04/28 12:20:35;;;;;;;;;;;;;;;;;;5068872;28;19970;-68
2021/04/28 12:23:01;;;;;;;;;;;;;;;;;;5071109;28;19931;-66
2021/04/28 12:25:28;;;;;;;;;;;;;;;;;;5066846;28;20027;-66
2021/04/28 12:27:54;;;;;;;;;;;;;;;;;;5065454;28;19986;-65
2021/04/28 12:30:22;;;;;;;;;;;;;;;;;;5067906;28;19924;-67
2021/04/28 12:32:48;;;;;;;;;;;;;;;;;;5069801;28;19924;-68
2021/04/28 12:35:16;;;;;;;;;;;;;;;;;;5065223;28;20023;-67
2021/04/28 12:37:42;;;;;;;;;;;;;;;;;;5062610;28;19931;-68
2021/04/28 12:40:10;;;;;;;;;;;;;;;;;;5068831;28;20295;-70
2021/04/28 12:42:36;;;;;;;;;;;;;;;;;;5070414;28;19990;-70
2021/04/28 12:45:03;;;;;;;;;;;;;;;;;;5070523;28;20043;-69
2021/04/28 12:47:29;;;;;;;;;;;;;;;;;;5068070;28;19924;-68
2021/04/28 12:49:56;;;;;;;;;;;;;;;;;;5068464;28;20019;-70
2021/04/28 12:52:22;;;;;;;;;;;;;;;;;;5068326;28;20031;-67
2021/04/28 12:54:49;;;;;;;;;;;;;;;;;;5066938;28;19924;-68
2021/04/28 12:57:15;;;;;;;;;;;;;;;;;;5062367;28;19929;-68
2021/04/28 12:59:44;;;;;;;;;;;;;;;;;;5067437;28;19935;-67
2021/04/28 13:02:11;;;;;;;;;;;;;;;;;;5064086;28;19975;-67
2021/04/28 13:04:37;;;;;;;;;;;;;;;;;;5070769;28;20178;-70
2021/04/28 13:07:04;;;;;;;;;;;;;;;;;;5063728;28;19978;-67
2021/04/28 13:09:30;;;;;;;;;;;;;;;;;;5068286;28;20074;-66
2021/04/28 13:11:57;;;;;;;;;;;;;;;;;;5072509;28;19935;-65
2021/04/28 13:14:24;;;;;;;;;;;;;;;;;;5069170;28;21589;-66
2021/04/28 13:16:53;;;;;;;;;;;;;;;;;;5072304;28;19929;-65
2021/04/28 13:19:19;;;;;;;;;;;;;;;;;;5072128;28;19954;-67
2021/04/28 13:21:46;;;;;;;;;;;;;;;;;;5078855;28;19967;-67
2021/04/28 13:24:12;;;;;;;;;;;;;;;;;;5078198;28;19928;-66
2021/04/28 13:26:40;;;;;;;;;;;;;;;;;;5070946;28;19924;-65
2021/04/28 13:29:07;;;;;;;;;;;;;;;;;;5076039;28;20018;-66
2021/04/28 13:31:33;;;;;;;;;;;;;;;;;;5072561;28;19982;-68
2021/04/28 13:34:00;;;;;;;;;;;;;;;;;;5070045;28;20938;-68
2021/04/28 13:36:27;;;;;;;;;;;;;;;;;;5066695;28;20019;-67
2021/04/28 13:38:54;;;;;;;;;;;;;;;;;;5064412;28;19924;-66
2021/04/28 13:41:21;;;;;;;;;;;;;;;;;;5065200;28;19962;-67
2021/04/28 13:43:47;;;;;;;;;;;;;;;;;;5067603;28;19996;-67
2021/04/28 13:46:14;;;;;;;;;;;;;;;;;;5069015;28;20368;-69
2021/04/28 13:48:40;;;;;;;;;;;;;;;;;;5064459;28;19931;-67
2021/04/28 13:51:07;;;;;;;;;;;;;;;;;;5069201;28;20007;-67
2021/04/28 13:53:33;;;;;;;;;;;;;;;;;;5070078;28;20423;-66
2021/04/28 13:56:00;;;;;;;;;;;;;;;;;;5069672;28;19924;-65
2021/04/28 13:58:26;;;;;;;;;;;;;;;;;;5058308;28;19935;-67
2021/04/28 14:00:53;;;;;;;;;;;;;;;;;;5069564;28;19929;-69
2021/04/28 14:03:19;;;;;;;;;;;;;;;;;;5064027;28;19931;-68
2021/04/28 14:05:46;;;;;;;;;;;;;;;;;;5065056;28;20222;-67
2021/04/28 14:08:12;;;;;;;;;;;;;;;;;;5064466;28;19987;-69
2021/04/28 14:10:39;;;;;;;;;;;;;;;;;;5069090;28;19924;-66
2021/04/28 14:13:05;;;;;;;;;;;;;;;;;;5069065;28;19976;-66
2021/04/28 14:15:34;;;;;;;;;;;;;;;;;;5071517;28;19924;-65
2021/04/28 14:18:01;;;;;;;;;;;;;;;;;;5062890;28;20397;-67
2021/04/28 14:20:27;;;;;;;;;;;;;;;;;;5063927;28;20045;-69
2021/04/28 14:22:54;;;;;;;;;;;;;;;;;;5065757;28;20031;-67
2021/04/28 14:25:20;;;;;;;;;;;;;;;;;;5072079;28;20349;-66
2021/04/28 14:27:47;;;;;;;;;;;;;;;;;;5063470;28;19996;-67
2021/04/28 14:30:13;;;;;;;;;;;;;;;;;;5073660;28;19924;-68
2021/04/28 14:32:40;;;;;;;;;;;;;;;;;;5070027;28;19928;-67
2021/04/28 14:35:06;;;;;;;;;;;;;;;;;;5075041;28;20388;-65
2021/04/28 14:37:33;;;;;;;;;;;;;;;;;;5070604;28;20157;-65
2021/04/28 14:39:59;;;;;;;;;;;;;;;;;;5074864;28;19924;-66
2021/04/28 14:42:26;;;;;;;;;;;;;;;;;;5073714;28;19924;-68
2021/04/28 14:44:52;;;;;;;;;;;;;;;;;;5079371;28;19938;-68
2021/04/28 14:47:19;;;;;;;;;;;;;;;;;;5076888;28;20850;-65
2021/04/28 14:49:45;;;;;;;;;;;;;;;;;;5074832;28;19924;-66
2021/04/28 14:52:12;;;;;;;;;;;;;;;;;;5069939;28;19924;-67
2021/04/28 14:54:38;;;;;;;;;;;;;;;;;;5075707;28;20054;-67
2021/04/28 14:57:05;;;;;;;;;;;;;;;;;;5071942;28;20039;-66
2021/04/28 14:59:32;;;;;;;;;;;;;;;;;;5073454;28;19963;-68
2021/04/28 15:01:59;;;;;;;;;;;;;;;;;;5075763;28;20028;-67
2021/04/28 15:04:38;;;;;;;;;;;;;;;;;;5072341;28;19986;-67
2021/04/28 15:07:04;;;;;;;;;;;;;;;;;;5070928;28;19971;-66
2021/04/28 15:09:31;;;;;;;;;;;;;;;;;;5075755;28;19928;-66
2021/04/28 15:11:58;;;;;;;;;;;;;;;;;;5070721;28;19977;-68
2021/04/28 15:14:24;;;;;;;;;;;;;;;;;;5074284;28;19929;-68
2021/04/28 15:16:51;;;;;;;;;;;;;;;;;;5066818;28;20023;-66
2021/04/28 15:19:17;;;;;;;;;;;;;;;;;;5068819;28;19925;-66
2021/04/28 15:21:44;;;;;;;;;;;;;;;;;;5068724;28;20391;-65
2021/04/28 15:24:10;;;;;;;;;;;;;;;;;;5073481;28;20003;-66
2021/04/28 15:26:37;;;;;;;;;;;;;;;;;;5069113;28;20057;-68
2021/04/28 15:29:03;;;;;;;;;;;;;;;;;;5065829;28;20061;-67
2021/04/28 15:31:30;;;;;;;;;;;;;;;;;;5054256;28;19946;-68
2021/04/28 15:33:56;;;;;;;;;;;;;;;;;;5067341;28;19925;-66
2021/04/28 15:36:23;;;;;;;;;;;;;;;;;;5067829;28;20093;-68
2021/04/28 15:38:51;;;;;;;;;;;;;;;;;;5064164;28;19989;-69
2021/04/28 15:41:17;;;;;;;;;;;;;;;;;;5068347;28;19932;-66
2021/04/28 15:43:44;;;;;;;;;;;;;;;;;;5066694;28;19928;-68
2021/04/28 15:46:10;;;;;;;;;;;;;;;;;;5070408;28;19968;-67
2021/04/28 15:48:37;;;;;;;;;;;;;;;;;;5072885;28;19925;-67
2021/04/28 15:51:03;;;;;;;;;;;;;;;;;;5061869;28;19934;-67
2021/04/28 15:53:29;;;;;;;;;;;;;;;;;;5065860;28;19968;-68
2021/04/28 15:55:57;;;;;;;;;;;;;;;;;;5068362;28;19970;-68
2021/04/28 15:58:23;;;;;;;;;;;;;;;;;;5074549;28;19940;-67
2021/04/28 16:00:50;;;;;;;;;;;;;;;;;;5075802;28;19924;-67
2021/04/28 16:03:16;;;;;;;;;;;;;;;;;;5068597;28;19932;-67
2021/04/28 16:05:43;;;;;;;;;;;;;;;;;;5067175;28;19928;-67
2021/04/28 16:08:09;;;;;;;;;;;;;;;;;;5073690;28;19959;-67
2021/04/28 16:10:36;;;;;;;;;;;;;;;;;;5075556;28;19931;-69
2021/04/28 16:13:03;;;;;;;;;;;;;;;;;;5075406;28;19974;-67
2021/04/28 16:15:29;;;;;;;;;;;;;;;;;;5091142;28;19924;-66
2021/04/28 16:17:56;;;;;;;;;;;;;;;;;;5110466;28;19967;-68
2021/04/28 16:20:22;;;;;;;;;;;;;;;;;;5097298;22;19912;-63
2021/04/28 16:22:49;;;;;;;;;;;;;;;;;;5065206;28;19982;-62
2021/04/28 16:25:18;;;;;;;;;;;;;;;;;;5063444;28;20458;-63
2021/04/28 16:27:44;;;;;;;;;;;;;;;;;;5062905;28;20315;-63
2021/04/28 16:30:11;;;;;;;;;;;;;;;;;;5065691;28;20343;-64
2021/04/28 16:32:37;;;;;;;;;;;;;;;;;;5065412;28;19932;-63
2021/04/28 16:35:04;;;;;;;;;;;;;;;;;;5063992;28;19940;-63
2021/04/28 16:37:30;;;;;;;;;;;;;;;;;;5074430;28;19974;-63
2021/04/28 16:40:00;;;;;;;;;;;;;;;;;;5068013;28;20412;-65
2021/04/28 16:42:26;;;;;;;;;;;;;;;;;;5066630;28;19924;-64